sensor_id;sensor_type;location;lat;lon;timestamp;P1;durP1;ratioP1;P2;durP2;ratioP2
62163;SDS011;48149;51.132;7.178;2023-08-21T00:00:59;8.38;;;3.40;;
62163;SDS011;48149;51.132;7.178;2023-08-21T00:03:24;8.52;;;3.60;;
62163;SDS011;48149;51.132;7.178;2023-08-21T00:05:50;5.60;;;2.97;;
62163;SDS011;48149;51.132;7.178;2023-08-21T00:08:15;8.20;;;3.40;;
62163;SDS011;48149;51.132;7.178;2023-08-21T00:10:40;9.88;;;3.85;;
62163;SDS011;48149;51.132;7.178;2023-08-21T00:13:06;7.60;;;3.40;;
62163;SDS011;48149;51.132;7.178;2023-08-21T00:15:31;5.40;;;2.90;;
62163;SDS011;48149;51.132;7.178;2023-08-21T00:17:57;7.50;;;3.78;;
62163;SDS011;48149;51.132;7.178;2023-08-21T00:20:22;4.90;;;3.20;;
62163;SDS011;48149;51.132;7.178;2023-08-21T00:22:47;5.35;;;3.15;;
62163;SDS011;48149;51.132;7.178;2023-08-21T00:25:13;4.78;;;3.00;;
62163;SDS011;48149;51.132;7.178;2023-08-21T00:27:38;5.57;;;3.40;;
62163;SDS011;48149;51.132;7.178;2023-08-21T00:30:03;6.40;;;3.70;;
62163;SDS011;48149;51.132;7.178;2023-08-21T00:32:29;7.40;;;3.90;;
62163;SDS011;48149;51.132;7.178;2023-08-21T00:34:54;8.25;;;3.35;;
62163;SDS011;48149;51.132;7.178;2023-08-21T00:37:20;7.80;;;3.38;;
62163;SDS011;48149;51.132;7.178;2023-08-21T00:39:45;6.47;;;3.40;;
62163;SDS011;48149;51.132;7.178;2023-08-21T00:42:10;7.68;;;3.65;;
62163;SDS011;48149;51.132;7.178;2023-08-21T00:44:36;5.15;;;3.17;;
62163;SDS011;48149;51.132;7.178;2023-08-21T00:47:01;8.07;;;3.38;;
62163;SDS011;48149;51.132;7.178;2023-08-21T00:49:26;6.30;;;3.42;;
62163;SDS011;48149;51.132;7.178;2023-08-21T00:51:52;7.75;;;3.55;;
62163;SDS011;48149;51.132;7.178;2023-08-21T00:54:18;5.07;;;3.00;;
62163;SDS011;48149;51.132;7.178;2023-08-21T00:56:44;7.28;;;3.50;;
62163;SDS011;48149;51.132;7.178;2023-08-21T00:59:11;8.40;;;3.25;;
62163;SDS011;48149;51.132;7.178;2023-08-21T01:01:37;5.22;;;3.33;;
62163;SDS011;48149;51.132;7.178;2023-08-21T01:04:03;4.93;;;3.40;;
62163;SDS011;48149;51.132;7.178;2023-08-21T01:06:28;4.70;;;3.28;;
62163;SDS011;48149;51.132;7.178;2023-08-21T01:08:59;7.68;;;3.70;;
62163;SDS011;48149;51.132;7.178;2023-08-21T01:11:33;4.68;;;3.03;;
62163;SDS011;48149;51.132;7.178;2023-08-21T01:14:10;7.28;;;3.83;;
62163;SDS011;48149;51.132;7.178;2023-08-21T01:16:50;7.90;;;3.75;;
62163;SDS011;48149;51.132;7.178;2023-08-21T01:19:53;6.85;;;3.90;;
62163;SDS011;48149;51.132;7.178;2023-08-21T01:22:13;8.98;;;4.32;;
62163;SDS011;48149;51.132;7.178;2023-08-21T01:24:38;8.02;;;4.22;;
62163;SDS011;48149;51.132;7.178;2023-08-21T01:27:03;8.05;;;4.30;;
62163;SDS011;48149;51.132;7.178;2023-08-21T01:29:29;6.95;;;3.90;;
62163;SDS011;48149;51.132;7.178;2023-08-21T01:31:58;5.85;;;3.45;;
62163;SDS011;48149;51.132;7.178;2023-08-21T01:34:31;6.25;;;3.40;;
62163;SDS011;48149;51.132;7.178;2023-08-21T01:36:59;8.07;;;3.70;;
62163;SDS011;48149;51.132;7.178;2023-08-21T01:39:25;6.28;;;3.83;;
62163;SDS011;48149;51.132;7.178;2023-08-21T01:41:52;11.57;;;4.20;;
62163;SDS011;48149;51.132;7.178;2023-08-21T01:44:17;6.85;;;3.60;;
62163;SDS011;48149;51.132;7.178;2023-08-21T01:46:43;7.28;;;4.07;;
62163;SDS011;48149;51.132;7.178;2023-08-21T01:49:08;12.63;;;4.40;;
62163;SDS011;48149;51.132;7.178;2023-08-21T01:51:33;8.40;;;4.28;;
62163;SDS011;48149;51.132;7.178;2023-08-21T01:53:59;7.07;;;4.30;;
62163;SDS011;48149;51.132;7.178;2023-08-21T01:56:24;7.32;;;3.83;;
62163;SDS011;48149;51.132;7.178;2023-08-21T01:58:49;6.38;;;3.80;;
62163;SDS011;48149;51.132;7.178;2023-08-21T02:01:15;6.55;;;3.88;;
62163;SDS011;48149;51.132;7.178;2023-08-21T02:03:40;8.38;;;4.35;;
62163;SDS011;48149;51.132;7.178;2023-08-21T02:06:06;5.53;;;3.70;;
62163;SDS011;48149;51.132;7.178;2023-08-21T02:08:32;5.55;;;3.75;;
62163;SDS011;48149;51.132;7.178;2023-08-21T02:10:58;6.35;;;3.90;;
62163;SDS011;48149;51.132;7.178;2023-08-21T02:13:23;7.13;;;4.00;;
62163;SDS011;48149;51.132;7.178;2023-08-21T02:15:48;7.03;;;3.60;;
62163;SDS011;48149;51.132;7.178;2023-08-21T02:18:14;7.25;;;3.97;;
62163;SDS011;48149;51.132;7.178;2023-08-21T02:20:39;6.60;;;4.00;;
62163;SDS011;48149;51.132;7.178;2023-08-21T02:23:05;5.18;;;3.35;;
62163;SDS011;48149;51.132;7.178;2023-08-21T02:25:31;5.13;;;3.10;;
62163;SDS011;48149;51.132;7.178;2023-08-21T02:27:57;6.43;;;3.63;;
62163;SDS011;48149;51.132;7.178;2023-08-21T02:30:22;7.97;;;4.45;;
62163;SDS011;48149;51.132;7.178;2023-08-21T02:32:50;7.60;;;3.78;;
62163;SDS011;48149;51.132;7.178;2023-08-21T02:35:16;10.88;;;3.67;;
62163;SDS011;48149;51.132;7.178;2023-08-21T02:37:42;6.75;;;3.70;;
62163;SDS011;48149;51.132;7.178;2023-08-21T02:40:09;6.43;;;4.00;;
62163;SDS011;48149;51.132;7.178;2023-08-21T02:42:34;7.53;;;3.58;;
62163;SDS011;48149;51.132;7.178;2023-08-21T02:45:00;10.55;;;3.75;;
62163;SDS011;48149;51.132;7.178;2023-08-21T02:47:28;6.75;;;3.63;;
62163;SDS011;48149;51.132;7.178;2023-08-21T02:49:54;9.00;;;3.70;;
62163;SDS011;48149;51.132;7.178;2023-08-21T02:52:19;7.45;;;3.25;;
62163;SDS011;48149;51.132;7.178;2023-08-21T02:54:45;6.80;;;3.35;;
62163;SDS011;48149;51.132;7.178;2023-08-21T02:57:10;8.25;;;2.90;;
62163;SDS011;48149;51.132;7.178;2023-08-21T02:59:35;8.73;;;3.10;;
62163;SDS011;48149;51.132;7.178;2023-08-21T03:02:02;8.05;;;3.58;;
62163;SDS011;48149;51.132;7.178;2023-08-21T03:04:27;7.93;;;3.75;;
62163;SDS011;48149;51.132;7.178;2023-08-21T03:06:52;5.40;;;3.30;;
62163;SDS011;48149;51.132;7.178;2023-08-21T03:09:17;7.47;;;3.05;;
62163;SDS011;48149;51.132;7.178;2023-08-21T03:11:43;5.45;;;3.30;;
62163;SDS011;48149;51.132;7.178;2023-08-21T03:14:08;5.20;;;3.38;;
62163;SDS011;48149;51.132;7.178;2023-08-21T03:16:33;4.60;;;3.00;;
62163;SDS011;48149;51.132;7.178;2023-08-21T03:18:59;4.70;;;3.10;;
62163;SDS011;48149;51.132;7.178;2023-08-21T03:21:25;6.47;;;3.33;;
62163;SDS011;48149;51.132;7.178;2023-08-21T03:23:54;4.93;;;3.47;;
62163;SDS011;48149;51.132;7.178;2023-08-21T03:26:20;7.88;;;3.70;;
62163;SDS011;48149;51.132;7.178;2023-08-21T03:28:46;5.85;;;3.22;;
62163;SDS011;48149;51.132;7.178;2023-08-21T03:31:11;8.05;;;3.60;;
62163;SDS011;48149;51.132;7.178;2023-08-21T03:33:36;8.20;;;3.60;;
62163;SDS011;48149;51.132;7.178;2023-08-21T03:36:02;7.80;;;3.90;;
62163;SDS011;48149;51.132;7.178;2023-08-21T03:38:27;6.53;;;3.45;;
62163;SDS011;48149;51.132;7.178;2023-08-21T03:40:53;10.75;;;4.10;;
62163;SDS011;48149;51.132;7.178;2023-08-21T03:43:18;6.93;;;3.65;;
62163;SDS011;48149;51.132;7.178;2023-08-21T03:45:43;10.93;;;4.38;;
62163;SDS011;48149;51.132;7.178;2023-08-21T03:48:08;7.28;;;3.75;;
62163;SDS011;48149;51.132;7.178;2023-08-21T03:50:34;8.63;;;4.80;;
62163;SDS011;48149;51.132;7.178;2023-08-21T03:52:59;6.90;;;4.00;;
62163;SDS011;48149;51.132;7.178;2023-08-21T03:55:24;7.72;;;4.18;;
62163;SDS011;48149;51.132;7.178;2023-08-21T03:57:50;9.93;;;4.13;;
62163;SDS011;48149;51.132;7.178;2023-08-21T04:00:15;6.68;;;3.85;;
62163;SDS011;48149;51.132;7.178;2023-08-21T04:02:41;7.43;;;4.43;;
62163;SDS011;48149;51.132;7.178;2023-08-21T04:05:07;6.05;;;3.75;;
62163;SDS011;48149;51.132;7.178;2023-08-21T04:07:32;8.55;;;4.22;;
62163;SDS011;48149;51.132;7.178;2023-08-21T04:09:57;10.10;;;4.45;;
62163;SDS011;48149;51.132;7.178;2023-08-21T04:12:22;9.05;;;4.45;;
62163;SDS011;48149;51.132;7.178;2023-08-21T04:14:48;12.90;;;4.70;;
62163;SDS011;48149;51.132;7.178;2023-08-21T04:17:13;12.38;;;4.60;;
62163;SDS011;48149;51.132;7.178;2023-08-21T04:19:38;7.15;;;4.03;;
62163;SDS011;48149;51.132;7.178;2023-08-21T04:22:05;9.68;;;4.10;;
62163;SDS011;48149;51.132;7.178;2023-08-21T04:24:31;9.07;;;4.40;;
62163;SDS011;48149;51.132;7.178;2023-08-21T04:26:56;9.23;;;4.30;;
62163;SDS011;48149;51.132;7.178;2023-08-21T04:29:22;6.80;;;4.20;;
62163;SDS011;48149;51.132;7.178;2023-08-21T04:31:48;7.50;;;3.72;;
62163;SDS011;48149;51.132;7.178;2023-08-21T04:34:13;7.13;;;3.90;;
62163;SDS011;48149;51.132;7.178;2023-08-21T04:36:39;12.77;;;4.28;;
62163;SDS011;48149;51.132;7.178;2023-08-21T04:39:04;7.47;;;4.20;;
62163;SDS011;48149;51.132;7.178;2023-08-21T04:41:30;7.95;;;4.10;;
62163;SDS011;48149;51.132;7.178;2023-08-21T04:43:55;8.73;;;4.20;;
62163;SDS011;48149;51.132;7.178;2023-08-21T04:46:20;7.43;;;4.00;;
62163;SDS011;48149;51.132;7.178;2023-08-21T04:48:46;8.43;;;4.35;;
62163;SDS011;48149;51.132;7.178;2023-08-21T04:51:11;7.75;;;3.92;;
62163;SDS011;48149;51.132;7.178;2023-08-21T04:53:37;7.43;;;4.55;;
62163;SDS011;48149;51.132;7.178;2023-08-21T04:56:02;8.23;;;4.97;;
62163;SDS011;48149;51.132;7.178;2023-08-21T04:58:28;7.93;;;4.35;;
62163;SDS011;48149;51.132;7.178;2023-08-21T05:00:54;14.80;;;4.30;;
62163;SDS011;48149;51.132;7.178;2023-08-21T05:03:19;6.70;;;4.53;;
62163;SDS011;48149;51.132;7.178;2023-08-21T05:05:54;8.23;;;4.68;;
62163;SDS011;48149;51.132;7.178;2023-08-21T05:08:21;7.82;;;4.88;;
62163;SDS011;48149;51.132;7.178;2023-08-21T05:10:47;10.50;;;5.93;;
62163;SDS011;48149;51.132;7.178;2023-08-21T05:13:12;9.43;;;4.95;;
62163;SDS011;48149;51.132;7.178;2023-08-21T05:15:41;8.73;;;4.68;;
62163;SDS011;48149;51.132;7.178;2023-08-21T05:18:07;8.68;;;4.95;;
62163;SDS011;48149;51.132;7.178;2023-08-21T05:20:33;8.52;;;4.47;;
62163;SDS011;48149;51.132;7.178;2023-08-21T05:22:58;9.35;;;4.68;;
62163;SDS011;48149;51.132;7.178;2023-08-21T05:25:23;7.03;;;4.20;;
62163;SDS011;48149;51.132;7.178;2023-08-21T05:27:49;7.32;;;3.97;;
62163;SDS011;48149;51.132;7.178;2023-08-21T05:30:14;8.32;;;4.35;;
62163;SDS011;48149;51.132;7.178;2023-08-21T05:32:40;11.10;;;4.57;;
62163;SDS011;48149;51.132;7.178;2023-08-21T05:35:05;6.85;;;4.50;;
62163;SDS011;48149;51.132;7.178;2023-08-21T05:37:31;6.55;;;4.72;;
62163;SDS011;48149;51.132;7.178;2023-08-21T05:39:56;7.22;;;5.13;;
62163;SDS011;48149;51.132;7.178;2023-08-21T05:42:22;8.15;;;4.93;;
62163;SDS011;48149;51.132;7.178;2023-08-21T05:44:47;9.88;;;4.88;;
62163;SDS011;48149;51.132;7.178;2023-08-21T05:47:13;8.27;;;5.00;;
62163;SDS011;48149;51.132;7.178;2023-08-21T05:49:38;13.13;;;6.43;;
62163;SDS011;48149;51.132;7.178;2023-08-21T05:52:03;11.23;;;6.30;;
62163;SDS011;48149;51.132;7.178;2023-08-21T05:54:29;10.85;;;6.38;;
62163;SDS011;48149;51.132;7.178;2023-08-21T05:56:55;11.60;;;6.28;;
62163;SDS011;48149;51.132;7.178;2023-08-21T05:59:27;9.70;;;5.75;;
62163;SDS011;48149;51.132;7.178;2023-08-21T06:01:55;14.35;;;7.10;;
62163;SDS011;48149;51.132;7.178;2023-08-21T06:04:20;10.48;;;6.20;;
62163;SDS011;48149;51.132;7.178;2023-08-21T06:06:45;11.10;;;6.43;;
62163;SDS011;48149;51.132;7.178;2023-08-21T06:09:11;8.50;;;5.55;;
62163;SDS011;48149;51.132;7.178;2023-08-21T06:11:36;12.00;;;6.40;;
62163;SDS011;48149;51.132;7.178;2023-08-21T06:14:01;10.65;;;6.43;;
62163;SDS011;48149;51.132;7.178;2023-08-21T06:16:27;14.52;;;6.07;;
62163;SDS011;48149;51.132;7.178;2023-08-21T06:18:52;9.55;;;5.75;;
62163;SDS011;48149;51.132;7.178;2023-08-21T06:21:17;9.75;;;6.00;;
62163;SDS011;48149;51.132;7.178;2023-08-21T06:23:42;8.45;;;5.85;;
62163;SDS011;48149;51.132;7.178;2023-08-21T06:26:08;10.00;;;5.93;;
62163;SDS011;48149;51.132;7.178;2023-08-21T06:28:33;12.48;;;6.47;;
62163;SDS011;48149;51.132;7.178;2023-08-21T06:30:58;9.75;;;6.10;;
62163;SDS011;48149;51.132;7.178;2023-08-21T06:33:24;8.70;;;6.05;;
62163;SDS011;48149;51.132;7.178;2023-08-21T06:35:49;10.57;;;6.15;;
62163;SDS011;48149;51.132;7.178;2023-08-21T06:38:14;9.95;;;5.93;;
62163;SDS011;48149;51.132;7.178;2023-08-21T06:40:40;9.82;;;6.32;;
62163;SDS011;48149;51.132;7.178;2023-08-21T06:43:05;8.38;;;5.78;;
62163;SDS011;48149;51.132;7.178;2023-08-21T06:45:31;12.40;;;6.72;;
62163;SDS011;48149;51.132;7.178;2023-08-21T06:47:57;9.85;;;5.80;;
62163;SDS011;48149;51.132;7.178;2023-08-21T06:50:22;6.60;;;5.13;;
62163;SDS011;48149;51.132;7.178;2023-08-21T06:52:48;9.63;;;5.07;;
62163;SDS011;48149;51.132;7.178;2023-08-21T06:55:13;9.88;;;5.60;;
62163;SDS011;48149;51.132;7.178;2023-08-21T06:57:39;7.63;;;5.45;;
62163;SDS011;48149;51.132;7.178;2023-08-21T07:00:05;12.88;;;5.63;;
62163;SDS011;48149;51.132;7.178;2023-08-21T07:02:31;9.40;;;5.38;;
62163;SDS011;48149;51.132;7.178;2023-08-21T07:04:56;15.18;;;7.88;;
62163;SDS011;48149;51.132;7.178;2023-08-21T07:07:21;9.95;;;6.20;;
62163;SDS011;48149;51.132;7.178;2023-08-21T07:09:47;9.23;;;5.68;;
62163;SDS011;48149;51.132;7.178;2023-08-21T07:12:12;10.45;;;5.90;;
62163;SDS011;48149;51.132;7.178;2023-08-21T07:14:37;10.52;;;5.97;;
62163;SDS011;48149;51.132;7.178;2023-08-21T07:17:03;13.85;;;7.57;;
62163;SDS011;48149;51.132;7.178;2023-08-21T07:19:28;12.07;;;6.70;;
62163;SDS011;48149;51.132;7.178;2023-08-21T07:21:53;9.40;;;6.60;;
62163;SDS011;48149;51.132;7.178;2023-08-21T07:24:19;10.15;;;7.07;;
62163;SDS011;48149;51.132;7.178;2023-08-21T07:26:44;15.95;;;7.18;;
62163;SDS011;48149;51.132;7.178;2023-08-21T07:29:09;10.45;;;6.93;;
62163;SDS011;48149;51.132;7.178;2023-08-21T07:31:35;10.27;;;6.95;;
62163;SDS011;48149;51.132;7.178;2023-08-21T07:34:00;24.33;;;12.63;;
62163;SDS011;48149;51.132;7.178;2023-08-21T07:36:25;14.15;;;8.20;;
62163;SDS011;48149;51.132;7.178;2023-08-21T07:38:51;13.95;;;7.18;;
62163;SDS011;48149;51.132;7.178;2023-08-21T07:41:16;12.23;;;7.20;;
62163;SDS011;48149;51.132;7.178;2023-08-21T07:43:42;11.75;;;7.03;;
62163;SDS011;48149;51.132;7.178;2023-08-21T07:46:09;12.77;;;8.05;;
62163;SDS011;48149;51.132;7.178;2023-08-21T07:48:39;12.18;;;7.28;;
62163;SDS011;48149;51.132;7.178;2023-08-21T07:51:04;9.98;;;7.47;;
62163;SDS011;48149;51.132;7.178;2023-08-21T07:53:29;12.45;;;8.30;;
62163;SDS011;48149;51.132;7.178;2023-08-21T07:55:56;16.50;;;8.95;;
62163;SDS011;48149;51.132;7.178;2023-08-21T07:58:22;13.45;;;8.55;;
62163;SDS011;48149;51.132;7.178;2023-08-21T08:00:47;11.32;;;7.60;;
62163;SDS011;48149;51.132;7.178;2023-08-21T08:03:13;11.00;;;8.15;;
62163;SDS011;48149;51.132;7.178;2023-08-21T08:05:39;16.25;;;8.13;;
62163;SDS011;48149;51.132;7.178;2023-08-21T08:08:05;10.65;;;7.55;;
62163;SDS011;48149;51.132;7.178;2023-08-21T08:10:30;13.60;;;7.45;;
62163;SDS011;48149;51.132;7.178;2023-08-21T08:12:56;13.50;;;9.48;;
62163;SDS011;48149;51.132;7.178;2023-08-21T08:15:22;12.98;;;8.65;;
62163;SDS011;48149;51.132;7.178;2023-08-21T08:17:47;13.32;;;9.27;;
62163;SDS011;48149;51.132;7.178;2023-08-21T08:20:17;13.27;;;10.38;;
62163;SDS011;48149;51.132;7.178;2023-08-21T08:22:42;14.27;;;10.40;;
62163;SDS011;48149;51.132;7.178;2023-08-21T08:25:07;14.35;;;9.80;;
62163;SDS011;48149;51.132;7.178;2023-08-21T08:27:35;12.60;;;9.90;;
62163;SDS011;48149;51.132;7.178;2023-08-21T08:30:00;11.48;;;9.32;;
62163;SDS011;48149;51.132;7.178;2023-08-21T08:32:26;14.90;;;10.38;;
62163;SDS011;48149;51.132;7.178;2023-08-21T08:34:51;15.20;;;10.80;;
62163;SDS011;48149;51.132;7.178;2023-08-21T08:37:17;14.77;;;11.20;;
62163;SDS011;48149;51.132;7.178;2023-08-21T08:39:43;15.85;;;11.50;;
62163;SDS011;48149;51.132;7.178;2023-08-21T08:42:08;14.70;;;10.85;;
62163;SDS011;48149;51.132;7.178;2023-08-21T08:44:34;18.77;;;11.00;;
62163;SDS011;48149;51.132;7.178;2023-08-21T08:47:01;17.13;;;11.80;;
62163;SDS011;48149;51.132;7.178;2023-08-21T08:49:27;13.60;;;10.93;;
62163;SDS011;48149;51.132;7.178;2023-08-21T08:51:53;15.38;;;10.93;;
62163;SDS011;48149;51.132;7.178;2023-08-21T08:54:19;16.38;;;10.63;;
62163;SDS011;48149;51.132;7.178;2023-08-21T08:56:47;13.68;;;10.38;;
62163;SDS011;48149;51.132;7.178;2023-08-21T08:59:12;12.38;;;9.55;;
62163;SDS011;48149;51.132;7.178;2023-08-21T09:01:39;17.40;;;9.55;;
62163;SDS011;48149;51.132;7.178;2023-08-21T09:04:06;14.25;;;8.48;;
62163;SDS011;48149;51.132;7.178;2023-08-21T09:06:32;12.10;;;8.50;;
62163;SDS011;48149;51.132;7.178;2023-08-21T09:08:57;12.15;;;8.77;;
62163;SDS011;48149;51.132;7.178;2023-08-21T09:11:23;16.33;;;8.73;;
62163;SDS011;48149;51.132;7.178;2023-08-21T09:13:49;13.98;;;8.85;;
62163;SDS011;48149;51.132;7.178;2023-08-21T09:16:15;13.05;;;8.30;;
62163;SDS011;48149;51.132;7.178;2023-08-21T09:18:49;12.07;;;9.20;;
62163;SDS011;48149;51.132;7.178;2023-08-21T09:21:22;14.27;;;8.68;;
62163;SDS011;48149;51.132;7.178;2023-08-21T09:23:50;13.50;;;8.82;;
62163;SDS011;48149;51.132;7.178;2023-08-21T09:26:21;13.73;;;9.38;;
62163;SDS011;48149;51.132;7.178;2023-08-21T09:28:50;16.67;;;9.73;;
62163;SDS011;48149;51.132;7.178;2023-08-21T09:31:23;14.07;;;9.73;;
62163;SDS011;48149;51.132;7.178;2023-08-21T09:33:56;14.00;;;10.25;;
62163;SDS011;48149;51.132;7.178;2023-08-21T09:36:26;14.98;;;10.95;;
62163;SDS011;48149;51.132;7.178;2023-08-21T09:38:52;14.75;;;10.55;;
62163;SDS011;48149;51.132;7.178;2023-08-21T09:41:21;13.77;;;9.85;;
62163;SDS011;48149;51.132;7.178;2023-08-21T09:46:14;11.70;;;9.77;;
62163;SDS011;48149;51.132;7.178;2023-08-21T09:48:41;20.05;;;12.48;;
62163;SDS011;48149;51.132;7.178;2023-08-21T09:51:10;11.48;;;9.02;;
62163;SDS011;48149;51.132;7.178;2023-08-21T09:53:36;11.13;;;8.05;;
62163;SDS011;48149;51.132;7.178;2023-08-21T09:56:02;12.38;;;8.93;;
62163;SDS011;48149;51.132;7.178;2023-08-21T09:58:28;14.32;;;8.60;;
62163;SDS011;48149;51.132;7.178;2023-08-21T10:00:58;12.50;;;8.52;;
62163;SDS011;48149;51.132;7.178;2023-08-21T10:03:24;11.95;;;8.52;;
62163;SDS011;48149;51.132;7.178;2023-08-21T10:05:50;10.93;;;7.60;;
62163;SDS011;48149;51.132;7.178;2023-08-21T10:08:18;17.02;;;8.45;;
62163;SDS011;48149;51.132;7.178;2023-08-21T10:10:49;9.98;;;8.07;;
62163;SDS011;48149;51.132;7.178;2023-08-21T10:13:15;9.13;;;7.25;;
62163;SDS011;48149;51.132;7.178;2023-08-21T10:15:41;8.75;;;7.53;;
62163;SDS011;48149;51.132;7.178;2023-08-21T10:21:11;13.15;;;8.55;;
62163;SDS011;48149;51.132;7.178;2023-08-21T10:23:38;9.02;;;7.18;;
62163;SDS011;48149;51.132;7.178;2023-08-21T10:26:05;8.82;;;7.88;;
62163;SDS011;48149;51.132;7.178;2023-08-21T10:31:35;10.73;;;8.63;;
62163;SDS011;48149;51.132;7.178;2023-08-21T10:34:04;9.68;;;7.57;;
62163;SDS011;48149;51.132;7.178;2023-08-21T10:39:15;11.63;;;8.25;;
62163;SDS011;48149;51.132;7.178;2023-08-21T10:41:41;10.30;;;6.95;;
62163;SDS011;48149;51.132;7.178;2023-08-21T10:44:33;8.85;;;7.18;;
62163;SDS011;48149;51.132;7.178;2023-08-21T10:49:49;11.02;;;6.50;;
62163;SDS011;48149;51.132;7.178;2023-08-21T10:52:20;8.52;;;7.25;;
62163;SDS011;48149;51.132;7.178;2023-08-21T10:54:49;10.32;;;6.97;;
62163;SDS011;48149;51.132;7.178;2023-08-21T10:57:16;9.20;;;6.72;;
62163;SDS011;48149;51.132;7.178;2023-08-21T10:59:51;9.63;;;5.93;;
62163;SDS011;48149;51.132;7.178;2023-08-21T11:02:17;11.30;;;6.13;;
62163;SDS011;48149;51.132;7.178;2023-08-21T11:04:43;10.27;;;6.25;;
62163;SDS011;48149;51.132;7.178;2023-08-21T11:07:09;8.90;;;6.60;;
62163;SDS011;48149;51.132;7.178;2023-08-21T11:09:36;9.98;;;6.88;;
62163;SDS011;48149;51.132;7.178;2023-08-21T11:12:10;9.40;;;6.88;;
62163;SDS011;48149;51.132;7.178;2023-08-21T11:14:41;6.78;;;6.05;;
62163;SDS011;48149;51.132;7.178;2023-08-21T11:17:07;8.55;;;6.63;;
62163;SDS011;48149;51.132;7.178;2023-08-21T11:19:34;11.45;;;6.80;;
62163;SDS011;48149;51.132;7.178;2023-08-21T11:22:00;9.02;;;7.07;;
62163;SDS011;48149;51.132;7.178;2023-08-21T11:24:39;10.43;;;7.00;;
62163;SDS011;48149;51.132;7.178;2023-08-21T11:27:09;10.82;;;7.55;;
62163;SDS011;48149;51.132;7.178;2023-08-21T11:29:41;7.97;;;6.43;;
62163;SDS011;48149;51.132;7.178;2023-08-21T11:32:28;10.88;;;5.35;;
62163;SDS011;48149;51.132;7.178;2023-08-21T11:34:56;9.30;;;6.28;;
62163;SDS011;48149;51.132;7.178;2023-08-21T11:37:26;8.18;;;6.50;;
62163;SDS011;48149;51.132;7.178;2023-08-21T11:39:56;10.35;;;7.03;;
62163;SDS011;48149;51.132;7.178;2023-08-21T11:42:29;7.72;;;5.60;;
62163;SDS011;48149;51.132;7.178;2023-08-21T11:44:56;9.15;;;6.50;;
62163;SDS011;48149;51.132;7.178;2023-08-21T11:47:22;7.97;;;6.38;;
62163;SDS011;48149;51.132;7.178;2023-08-21T11:49:48;6.75;;;6.05;;
62163;SDS011;48149;51.132;7.178;2023-08-21T11:52:18;8.95;;;5.75;;
62163;SDS011;48149;51.132;7.178;2023-08-21T11:54:47;9.20;;;7.32;;
62163;SDS011;48149;51.132;7.178;2023-08-21T11:57:15;10.93;;;6.38;;
62163;SDS011;48149;51.132;7.178;2023-08-21T11:59:41;11.25;;;6.13;;
62163;SDS011;48149;51.132;7.178;2023-08-21T12:02:10;8.70;;;6.03;;
62163;SDS011;48149;51.132;7.178;2023-08-21T12:04:39;8.50;;;5.90;;
62163;SDS011;48149;51.132;7.178;2023-08-21T12:07:04;7.07;;;4.97;;
62163;SDS011;48149;51.132;7.178;2023-08-21T12:09:29;7.90;;;5.10;;
62163;SDS011;48149;51.132;7.178;2023-08-21T12:11:55;7.82;;;4.38;;
62163;SDS011;48149;51.132;7.178;2023-08-21T12:14:20;7.35;;;5.70;;
62163;SDS011;48149;51.132;7.178;2023-08-21T12:16:46;7.20;;;5.60;;
62163;SDS011;48149;51.132;7.178;2023-08-21T12:19:11;10.07;;;4.50;;
62163;SDS011;48149;51.132;7.178;2023-08-21T12:21:37;7.65;;;4.82;;
62163;SDS011;48149;51.132;7.178;2023-08-21T12:24:03;7.72;;;4.93;;
62163;SDS011;48149;51.132;7.178;2023-08-21T12:26:30;6.32;;;4.68;;
62163;SDS011;48149;51.132;7.178;2023-08-21T12:28:55;5.00;;;4.35;;
62163;SDS011;48149;51.132;7.178;2023-08-21T12:31:21;8.70;;;4.32;;
62163;SDS011;48149;51.132;7.178;2023-08-21T12:33:46;10.65;;;4.40;;
62163;SDS011;48149;51.132;7.178;2023-08-21T12:36:11;5.38;;;4.07;;
62163;SDS011;48149;51.132;7.178;2023-08-21T12:38:37;6.68;;;4.13;;
62163;SDS011;48149;51.132;7.178;2023-08-21T12:41:02;9.15;;;3.90;;
62163;SDS011;48149;51.132;7.178;2023-08-21T12:43:27;6.45;;;3.95;;
62163;SDS011;48149;51.132;7.178;2023-08-21T12:45:53;7.15;;;4.22;;
62163;SDS011;48149;51.132;7.178;2023-08-21T12:48:18;6.07;;;3.63;;
62163;SDS011;48149;51.132;7.178;2023-08-21T12:50:44;7.03;;;4.30;;
62163;SDS011;48149;51.132;7.178;2023-08-21T12:53:09;8.27;;;4.40;;
62163;SDS011;48149;51.132;7.178;2023-08-21T12:55:35;4.50;;;3.60;;
62163;SDS011;48149;51.132;7.178;2023-08-21T12:58:01;7.90;;;3.25;;
62163;SDS011;48149;51.132;7.178;2023-08-21T13:00:26;10.20;;;3.78;;
62163;SDS011;48149;51.132;7.178;2023-08-21T13:02:52;5.45;;;3.30;;
62163;SDS011;48149;51.132;7.178;2023-08-21T13:05:17;10.23;;;3.85;;
62163;SDS011;48149;51.132;7.178;2023-08-21T13:07:42;10.82;;;3.95;;
62163;SDS011;48149;51.132;7.178;2023-08-21T13:10:08;7.90;;;4.18;;
62163;SDS011;48149;51.132;7.178;2023-08-21T13:12:33;8.48;;;3.60;;
62163;SDS011;48149;51.132;7.178;2023-08-21T13:14:59;5.82;;;3.88;;
62163;SDS011;48149;51.132;7.178;2023-08-21T13:17:24;10.30;;;4.78;;
62163;SDS011;48149;51.132;7.178;2023-08-21T13:19:49;5.25;;;3.60;;
62163;SDS011;48149;51.132;7.178;2023-08-21T13:22:18;4.93;;;3.78;;
62163;SDS011;48149;51.132;7.178;2023-08-21T13:24:43;5.30;;;3.50;;
62163;SDS011;48149;51.132;7.178;2023-08-21T13:27:09;7.80;;;4.00;;
62163;SDS011;48149;51.132;7.178;2023-08-21T13:29:34;9.75;;;3.78;;
62163;SDS011;48149;51.132;7.178;2023-08-21T13:31:59;5.00;;;3.40;;
62163;SDS011;48149;51.132;7.178;2023-08-21T13:34:25;6.32;;;3.65;;
62163;SDS011;48149;51.132;7.178;2023-08-21T13:36:50;6.40;;;3.77;;
62163;SDS011;48149;51.132;7.178;2023-08-21T13:39:16;6.25;;;3.95;;
62163;SDS011;48149;51.132;7.178;2023-08-21T13:41:41;7.63;;;3.45;;
62163;SDS011;48149;51.132;7.178;2023-08-21T13:44:07;6.32;;;4.05;;
62163;SDS011;48149;51.132;7.178;2023-08-21T13:46:33;5.60;;;3.70;;
62163;SDS011;48149;51.132;7.178;2023-08-21T13:48:58;4.85;;;3.58;;
62163;SDS011;48149;51.132;7.178;2023-08-21T13:51:24;6.38;;;3.55;;
62163;SDS011;48149;51.132;7.178;2023-08-21T13:53:49;5.72;;;3.30;;
62163;SDS011;48149;51.132;7.178;2023-08-21T13:56:14;4.60;;;3.47;;
62163;SDS011;48149;51.132;7.178;2023-08-21T13:58:40;11.70;;;3.17;;
62163;SDS011;48149;51.132;7.178;2023-08-21T14:01:05;4.22;;;3.05;;
62163;SDS011;48149;51.132;7.178;2023-08-21T14:03:32;5.50;;;3.60;;
62163;SDS011;48149;51.132;7.178;2023-08-21T14:05:58;7.07;;;3.47;;
62163;SDS011;48149;51.132;7.178;2023-08-21T14:08:23;12.43;;;3.92;;
62163;SDS011;48149;51.132;7.178;2023-08-21T14:10:48;4.45;;;2.97;;
62163;SDS011;48149;51.132;7.178;2023-08-21T14:13:14;5.20;;;3.08;;
62163;SDS011;48149;51.132;7.178;2023-08-21T14:15:39;4.63;;;3.13;;
62163;SDS011;48149;51.132;7.178;2023-08-21T14:18:04;5.45;;;3.20;;
62163;SDS011;48149;51.132;7.178;2023-08-21T14:20:30;7.35;;;3.20;;
62163;SDS011;48149;51.132;7.178;2023-08-21T14:22:55;7.65;;;3.50;;
62163;SDS011;48149;51.132;7.178;2023-08-21T14:25:20;6.20;;;3.25;;
62163;SDS011;48149;51.132;7.178;2023-08-21T14:27:47;5.97;;;3.13;;
62163;SDS011;48149;51.132;7.178;2023-08-21T14:30:13;6.93;;;3.25;;
62163;SDS011;48149;51.132;7.178;2023-08-21T14:32:39;6.22;;;3.22;;
62163;SDS011;48149;51.132;7.178;2023-08-21T14:35:04;5.07;;;3.15;;
62163;SDS011;48149;51.132;7.178;2023-08-21T14:37:33;5.07;;;3.05;;
62163;SDS011;48149;51.132;7.178;2023-08-21T14:39:58;5.78;;;3.10;;
62163;SDS011;48149;51.132;7.178;2023-08-21T14:42:24;5.18;;;3.03;;
62163;SDS011;48149;51.132;7.178;2023-08-21T14:44:49;4.78;;;3.05;;
62163;SDS011;48149;51.132;7.178;2023-08-21T14:47:15;6.78;;;2.80;;
62163;SDS011;48149;51.132;7.178;2023-08-21T14:49:40;7.88;;;2.97;;
62163;SDS011;48149;51.132;7.178;2023-08-21T14:52:06;6.70;;;2.90;;